sensor_id;sensor_type;location;lat;lon;timestamp;P1;durP1;ratioP1;P2;durP2;ratioP2
77164;SDS011;66140;50.280;18.660;2023-05-18T04:00:17;9.68;;;2.88;;
77164;SDS011;66140;50.280;18.660;2023-05-18T04:03:02;7.88;;;3.15;;
77164;SDS011;66140;50.280;18.660;2023-05-18T04:05:28;14.35;;;4.25;;
77164;SDS011;66140;50.280;18.660;2023-05-18T04:07:54;9.52;;;3.28;;
77164;SDS011;66140;50.280;18.660;2023-05-18T04:10:21;10.73;;;2.83;;
77164;SDS011;66140;50.280;18.660;2023-05-18T04:12:47;7.78;;;2.90;;
77164;SDS011;66140;50.280;18.660;2023-05-18T04:15:13;11.68;;;3.67;;
77164;SDS011;66140;50.280;18.660;2023-05-18T04:17:39;9.48;;;3.33;;
77164;SDS011;66140;50.280;18.660;2023-05-18T04:20:09;6.88;;;2.80;;
77164;SDS011;66140;50.280;18.660;2023-05-18T04:22:44;13.50;;;3.50;;
77164;SDS011;66140;50.280;18.660;2023-05-18T04:25:12;11.25;;;3.22;;
77164;SDS011;66140;50.280;18.660;2023-05-18T04:27:41;12.07;;;4.18;;
77164;SDS011;66140;50.280;18.660;2023-05-18T04:30:08;10.70;;;3.80;;
77164;SDS011;66140;50.280;18.660;2023-05-18T04:32:35;11.57;;;3.65;;
77164;SDS011;66140;50.280;18.660;2023-05-18T04:35:02;12.65;;;3.70;;
77164;SDS011;66140;50.280;18.660;2023-05-18T04:37:30;11.93;;;3.13;;
77164;SDS011;66140;50.280;18.660;2023-05-18T04:39:57;10.05;;;3.33;;
77164;SDS011;66140;50.280;18.660;2023-05-18T04:42:26;10.82;;;3.15;;
77164;SDS011;66140;50.280;18.660;2023-05-18T04:44:52;8.60;;;3.25;;
77164;SDS011;66140;50.280;18.660;2023-05-18T04:47:18;11.52;;;3.50;;
77164;SDS011;66140;50.280;18.660;2023-05-18T04:49:46;9.30;;;2.88;;
77164;SDS011;66140;50.280;18.660;2023-05-18T04:52:13;6.88;;;2.88;;
77164;SDS011;66140;50.280;18.660;2023-05-18T04:54:38;10.60;;;3.22;;
77164;SDS011;66140;50.280;18.660;2023-05-18T04:57:05;10.55;;;2.95;;
77164;SDS011;66140;50.280;18.660;2023-05-18T04:59:30;6.80;;;3.35;;
77164;SDS011;66140;50.280;18.660;2023-05-18T05:02:00;10.23;;;3.78;;
77164;SDS011;66140;50.280;18.660;2023-05-18T05:04:26;11.85;;;2.65;;
77164;SDS011;66140;50.280;18.660;2023-05-18T05:06:51;12.93;;;3.73;;
77164;SDS011;66140;50.280;18.660;2023-05-18T05:09:17;14.80;;;4.20;;
77164;SDS011;66140;50.280;18.660;2023-05-18T05:11:42;16.20;;;6.78;;
77164;SDS011;66140;50.280;18.660;2023-05-18T05:14:08;11.85;;;4.30;;
77164;SDS011;66140;50.280;18.660;2023-05-18T05:16:34;7.78;;;4.20;;
77164;SDS011;66140;50.280;18.660;2023-05-18T05:19:00;9.90;;;2.65;;
77164;SDS011;66140;50.280;18.660;2023-05-18T05:21:26;8.27;;;3.10;;
77164;SDS011;66140;50.280;18.660;2023-05-18T05:23:51;8.48;;;3.80;;
77164;SDS011;66140;50.280;18.660;2023-05-18T05:26:18;8.53;;;3.50;;
77164;SDS011;66140;50.280;18.660;2023-05-18T05:31:10;10.43;;;2.97;;
77164;SDS011;66140;50.280;18.660;2023-05-18T05:33:36;10.48;;;3.13;;
77164;SDS011;66140;50.280;18.660;2023-05-18T05:36:01;10.93;;;3.20;;
77164;SDS011;66140;50.280;18.660;2023-05-18T05:38:29;8.65;;;2.78;;
77164;SDS011;66140;50.280;18.660;2023-05-18T05:40:55;7.22;;;2.72;;
77164;SDS011;66140;50.280;18.660;2023-05-18T05:43:20;10.10;;;3.38;;
77164;SDS011;66140;50.280;18.660;2023-05-18T05:45:45;12.32;;;4.70;;
77164;SDS011;66140;50.280;18.660;2023-05-18T05:48:11;9.63;;;3.33;;
77164;SDS011;66140;50.280;18.660;2023-05-18T05:50:36;10.13;;;3.40;;
77164;SDS011;66140;50.280;18.660;2023-05-18T05:53:01;17.20;;;3.63;;
77164;SDS011;66140;50.280;18.660;2023-05-18T05:55:27;10.23;;;2.90;;
77164;SDS011;66140;50.280;18.660;2023-05-18T05:57:52;8.63;;;3.03;;
77164;SDS011;66140;50.280;18.660;2023-05-18T06:00:18;9.63;;;2.93;;
77164;SDS011;66140;50.280;18.660;2023-05-18T06:02:43;10.63;;;3.63;;
77164;SDS011;66140;50.280;18.660;2023-05-18T06:05:09;8.43;;;2.30;;
77164;SDS011;66140;50.280;18.660;2023-05-18T06:07:34;13.73;;;3.42;;
77164;SDS011;66140;50.280;18.660;2023-05-18T06:10:00;9.48;;;2.53;;
77164;SDS011;66140;50.280;18.660;2023-05-18T06:12:26;9.02;;;3.03;;
77164;SDS011;66140;50.280;18.660;2023-05-18T06:14:51;10.27;;;3.33;;
77164;SDS011;66140;50.280;18.660;2023-05-18T06:17:21;12.70;;;2.97;;
77164;SDS011;66140;50.280;18.660;2023-05-18T06:19:46;10.32;;;3.15;;
77164;SDS011;66140;50.280;18.660;2023-05-18T06:22:12;9.37;;;3.03;;
77164;SDS011;66140;50.280;18.660;2023-05-18T06:24:37;18.70;;;3.33;;
77164;SDS011;66140;50.280;18.660;2023-05-18T06:27:02;9.70;;;3.90;;
77164;SDS011;66140;50.280;18.660;2023-05-18T06:29:28;9.40;;;3.15;;
77164;SDS011;66140;50.280;18.660;2023-05-18T06:31:54;16.75;;;3.35;;
77164;SDS011;66140;50.280;18.660;2023-05-18T06:34:20;8.52;;;3.03;;
77164;SDS011;66140;50.280;18.660;2023-05-18T06:36:46;6.80;;;2.30;;
77164;SDS011;66140;50.280;18.660;2023-05-18T06:39:11;9.80;;;2.38;;
77164;SDS011;66140;50.280;18.660;2023-05-18T06:41:36;9.33;;;2.40;;
77164;SDS011;66140;50.280;18.660;2023-05-18T06:44:02;10.83;;;2.73;;
77164;SDS011;66140;50.280;18.660;2023-05-18T06:46:27;6.77;;;2.50;;
77164;SDS011;66140;50.280;18.660;2023-05-18T06:48:52;8.45;;;2.50;;
77164;SDS011;66140;50.280;18.660;2023-05-18T06:51:18;7.85;;;2.80;;
77164;SDS011;66140;50.280;18.660;2023-05-18T06:53:44;6.22;;;2.17;;
77164;SDS011;66140;50.280;18.660;2023-05-18T06:56:10;6.63;;;2.15;;
77164;SDS011;66140;50.280;18.660;2023-05-18T06:58:37;8.15;;;2.63;;
77164;SDS011;66140;50.280;18.660;2023-05-18T07:01:05;3.85;;;1.73;;
77164;SDS011;66140;50.280;18.660;2023-05-18T07:03:31;6.40;;;2.08;;
77164;SDS011;66140;50.280;18.660;2023-05-18T07:05:57;7.10;;;2.00;;
77164;SDS011;66140;50.280;18.660;2023-05-18T07:08:22;8.48;;;2.05;;
77164;SDS011;66140;50.280;18.660;2023-05-18T07:10:49;7.60;;;2.85;;
77164;SDS011;66140;50.280;18.660;2023-05-18T07:13:14;6.35;;;2.40;;
77164;SDS011;66140;50.280;18.660;2023-05-18T07:15:40;9.57;;;1.90;;
77164;SDS011;66140;50.280;18.660;2023-05-18T07:18:05;9.50;;;1.92;;
77164;SDS011;66140;50.280;18.660;2023-05-18T07:20:31;4.72;;;2.15;;
77164;SDS011;66140;50.280;18.660;2023-05-18T07:22:56;7.57;;;2.50;;
77164;SDS011;66140;50.280;18.660;2023-05-18T07:25:22;5.50;;;2.53;;
77164;SDS011;66140;50.280;18.660;2023-05-18T07:27:47;5.18;;;1.75;;
77164;SDS011;66140;50.280;18.660;2023-05-18T07:30:13;4.40;;;1.88;;
77164;SDS011;66140;50.280;18.660;2023-05-18T07:32:38;6.35;;;2.10;;
77164;SDS011;66140;50.280;18.660;2023-05-18T07:35:04;7.72;;;1.50;;
77164;SDS011;66140;50.280;18.660;2023-05-18T07:37:29;3.85;;;1.77;;
77164;SDS011;66140;50.280;18.660;2023-05-18T07:39:55;7.40;;;1.77;;
77164;SDS011;66140;50.280;18.660;2023-05-18T07:42:20;5.43;;;2.05;;
77164;SDS011;66140;50.280;18.660;2023-05-18T07:44:46;3.15;;;1.90;;
77164;SDS011;66140;50.280;18.660;2023-05-18T07:47:11;8.80;;;1.80;;
77164;SDS011;66140;50.280;18.660;2023-05-18T07:49:36;5.53;;;1.67;;
77164;SDS011;66140;50.280;18.660;2023-05-18T07:52:05;5.82;;;2.40;;
77164;SDS011;66140;50.280;18.660;2023-05-18T07:54:32;5.85;;;1.77;;
77164;SDS011;66140;50.280;18.660;2023-05-18T07:56:57;4.72;;;1.73;;
77164;SDS011;66140;50.280;18.660;2023-05-18T07:59:23;10.30;;;2.17;;
77164;SDS011;66140;50.280;18.660;2023-05-18T08:01:48;6.80;;;2.00;;
77164;SDS011;66140;50.280;18.660;2023-05-18T08:04:13;7.27;;;1.87;;
77164;SDS011;66140;50.280;18.660;2023-05-18T08:06:39;4.60;;;1.67;;
77164;SDS011;66140;50.280;18.660;2023-05-18T08:09:04;9.73;;;1.77;;
77164;SDS011;66140;50.280;18.660;2023-05-18T08:11:31;4.43;;;1.70;;
77164;SDS011;66140;50.280;18.660;2023-05-18T08:13:57;4.18;;;1.80;;
77164;SDS011;66140;50.280;18.660;2023-05-18T08:16:22;9.32;;;2.20;;
77164;SDS011;66140;50.280;18.660;2023-05-18T08:18:48;3.55;;;1.67;;
77164;SDS011;66140;50.280;18.660;2023-05-18T08:21:13;3.47;;;1.40;;
77164;SDS011;66140;50.280;18.660;2023-05-18T08:23:39;3.70;;;1.42;;
77164;SDS011;66140;50.280;18.660;2023-05-18T08:26:04;5.03;;;1.60;;
77164;SDS011;66140;50.280;18.660;2023-05-18T08:28:30;5.10;;;1.70;;
77164;SDS011;66140;50.280;18.660;2023-05-18T08:30:56;5.60;;;1.52;;
77164;SDS011;66140;50.280;18.660;2023-05-18T08:33:21;5.78;;;1.73;;
77164;SDS011;66140;50.280;18.660;2023-05-18T08:35:50;4.95;;;1.30;;
77164;SDS011;66140;50.280;18.660;2023-05-18T08:38:15;5.75;;;1.77;;
77164;SDS011;66140;50.280;18.660;2023-05-18T08:40:42;5.65;;;1.48;;
77164;SDS011;66140;50.280;18.660;2023-05-18T08:43:20;5.03;;;1.20;;
77164;SDS011;66140;50.280;18.660;2023-05-18T08:45:50;8.13;;;1.55;;
77164;SDS011;66140;50.280;18.660;2023-05-18T08:48:21;5.00;;;1.52;;
77164;SDS011;66140;50.280;18.660;2023-05-18T08:50:48;4.25;;;1.27;;
77164;SDS011;66140;50.280;18.660;2023-05-18T08:53:17;6.97;;;1.95;;
77164;SDS011;66140;50.280;18.660;2023-05-18T08:55:45;7.63;;;1.58;;
77164;SDS011;66140;50.280;18.660;2023-05-18T08:58:16;3.67;;;0.98;;
77164;SDS011;66140;50.280;18.660;2023-05-18T09:00:43;4.35;;;1.50;;
77164;SDS011;66140;50.280;18.660;2023-05-18T09:03:09;6.13;;;1.50;;
77164;SDS011;66140;50.280;18.660;2023-05-18T09:05:35;3.70;;;1.30;;
77164;SDS011;66140;50.280;18.660;2023-05-18T09:08:01;2.10;;;1.10;;
77164;SDS011;66140;50.280;18.660;2023-05-18T09:10:27;3.38;;;1.35;;
77164;SDS011;66140;50.280;18.660;2023-05-18T09:12:53;5.60;;;1.17;;
77164;SDS011;66140;50.280;18.660;2023-05-18T09:15:20;3.35;;;1.00;;
77164;SDS011;66140;50.280;18.660;2023-05-18T09:17:45;4.03;;;1.20;;
77164;SDS011;66140;50.280;18.660;2023-05-18T09:20:11;3.13;;;1.02;;
77164;SDS011;66140;50.280;18.660;2023-05-18T09:22:37;5.82;;;1.30;;
77164;SDS011;66140;50.280;18.660;2023-05-18T09:25:05;3.10;;;1.17;;
77164;SDS011;66140;50.280;18.660;2023-05-18T09:27:32;6.25;;;1.10;;
77164;SDS011;66140;50.280;18.660;2023-05-18T09:29:58;3.80;;;1.42;;
77164;SDS011;66140;50.280;18.660;2023-05-18T09:32:24;3.20;;;0.90;;
77164;SDS011;66140;50.280;18.660;2023-05-18T09:34:50;4.80;;;1.60;;
77164;SDS011;66140;50.280;18.660;2023-05-18T09:37:19;2.65;;;0.98;;
77164;SDS011;66140;50.280;18.660;2023-05-18T09:39:58;9.18;;;1.70;;
77164;SDS011;66140;50.280;18.660;2023-05-18T09:42:42;4.18;;;0.93;;
77164;SDS011;66140;50.280;18.660;2023-05-18T09:45:18;6.60;;;1.17;;
77164;SDS011;66140;50.280;18.660;2023-05-18T09:47:48;5.00;;;1.02;;
77164;SDS011;66140;50.280;18.660;2023-05-18T09:50:14;2.47;;;1.02;;
77164;SDS011;66140;50.280;18.660;2023-05-18T09:52:44;4.72;;;1.00;;
77164;SDS011;66140;50.280;18.660;2023-05-18T09:55:19;5.68;;;1.75;;
77164;SDS011;66140;50.280;18.660;2023-05-18T09:57:45;4.15;;;1.92;;
77164;SDS011;66140;50.280;18.660;2023-05-18T10:00:15;8.55;;;4.78;;
77164;SDS011;66140;50.280;18.660;2023-05-18T10:02:44;9.00;;;5.60;;
77164;SDS011;66140;50.280;18.660;2023-05-18T10:05:19;8.90;;;3.58;;
77164;SDS011;66140;50.280;18.660;2023-05-18T10:07:46;7.00;;;3.17;;
77164;SDS011;66140;50.280;18.660;2023-05-18T10:10:12;6.07;;;2.50;;
77164;SDS011;66140;50.280;18.660;2023-05-18T10:12:41;6.20;;;3.22;;
77164;SDS011;66140;50.280;18.660;2023-05-18T10:15:08;4.28;;;1.45;;
77164;SDS011;66140;50.280;18.660;2023-05-18T10:17:34;2.83;;;1.38;;
77164;SDS011;66140;50.280;18.660;2023-05-18T10:20:03;1.60;;;0.77;;
77164;SDS011;66140;50.280;18.660;2023-05-18T10:22:33;3.10;;;1.50;;
77164;SDS011;66140;50.280;18.660;2023-05-18T10:24:59;2.28;;;0.98;;
77164;SDS011;66140;50.280;18.660;2023-05-18T10:27:28;5.47;;;1.05;;
77164;SDS011;66140;50.280;18.660;2023-05-18T10:29:57;4.03;;;1.30;;
77164;SDS011;66140;50.280;18.660;2023-05-18T10:32:23;2.20;;;0.70;;
77164;SDS011;66140;50.280;18.660;2023-05-18T10:34:52;2.47;;;0.70;;
77164;SDS011;66140;50.280;18.660;2023-05-18T10:37:20;5.00;;;1.10;;
77164;SDS011;66140;50.280;18.660;2023-05-18T10:39:49;4.95;;;1.20;;
77164;SDS011;66140;50.280;18.660;2023-05-18T10:42:15;3.92;;;1.38;;
77164;SDS011;66140;50.280;18.660;2023-05-18T10:44:43;3.65;;;1.05;;
77164;SDS011;66140;50.280;18.660;2023-05-18T10:47:11;4.40;;;1.10;;
77164;SDS011;66140;50.280;18.660;2023-05-18T10:49:39;5.45;;;1.83;;
77164;SDS011;66140;50.280;18.660;2023-05-18T10:52:06;11.27;;;3.50;;
77164;SDS011;66140;50.280;18.660;2023-05-18T10:54:33;9.93;;;3.78;;
77164;SDS011;66140;50.280;18.660;2023-05-18T10:57:00;26.92;;;10.75;;
77164;SDS011;66140;50.280;18.660;2023-05-18T10:59:26;8.38;;;2.28;;
77164;SDS011;66140;50.280;18.660;2023-05-18T11:01:52;8.80;;;2.45;;
77164;SDS011;66140;50.280;18.660;2023-05-18T11:04:23;3.53;;;1.52;;
77164;SDS011;66140;50.280;18.660;2023-05-18T11:06:57;4.25;;;1.50;;
77164;SDS011;66140;50.280;18.660;2023-05-18T11:09:23;4.13;;;1.75;;
77164;SDS011;66140;50.280;18.660;2023-05-18T11:11:55;5.07;;;0.90;;
77164;SDS011;66140;50.280;18.660;2023-05-18T11:14:28;4.85;;;1.52;;
77164;SDS011;66140;50.280;18.660;2023-05-18T11:27:57;4.78;;;1.52;;
77164;SDS011;66140;50.280;18.660;2023-05-18T11:35:32;11.43;;;2.20;;
77164;SDS011;66140;50.280;18.660;2023-05-18T11:38:07;8.23;;;2.03;;
77164;SDS011;66140;50.280;18.660;2023-05-18T11:40:55;8.63;;;3.42;;
77164;SDS011;66140;50.280;18.660;2023-05-18T11:43:23;8.18;;;2.17;;
77164;SDS011;66140;50.280;18.660;2023-05-18T11:45:53;9.13;;;2.60;;
77164;SDS011;66140;50.280;18.660;2023-05-18T11:48:20;5.95;;;2.17;;
77164;SDS011;66140;50.280;18.660;2023-05-18T11:50:47;3.78;;;1.38;;
77164;SDS011;66140;50.280;18.660;2023-05-18T11:53:15;4.28;;;1.48;;
77164;SDS011;66140;50.280;18.660;2023-05-18T11:55:41;6.90;;;1.30;;
77164;SDS011;66140;50.280;18.660;2023-05-18T11:58:06;4.10;;;1.00;;
77164;SDS011;66140;50.280;18.660;2023-05-18T12:00:33;4.35;;;1.20;;
77164;SDS011;66140;50.280;18.660;2023-05-18T12:03:01;8.98;;;2.42;;
77164;SDS011;66140;50.280;18.660;2023-05-18T12:05:30;5.43;;;1.73;;
77164;SDS011;66140;50.280;18.660;2023-05-18T12:07:58;6.82;;;2.10;;
77164;SDS011;66140;50.280;18.660;2023-05-18T12:10:24;8.95;;;1.40;;
77164;SDS011;66140;50.280;18.660;2023-05-18T12:12:53;6.93;;;1.60;;
77164;SDS011;66140;50.280;18.660;2023-05-18T12:15:22;5.68;;;1.40;;
77164;SDS011;66140;50.280;18.660;2023-05-18T12:17:49;2.42;;;0.90;;
77164;SDS011;66140;50.280;18.660;2023-05-18T12:20:15;3.63;;;1.35;;
77164;SDS011;66140;50.280;18.660;2023-05-18T12:22:43;4.53;;;1.75;;
77164;SDS011;66140;50.280;18.660;2023-05-18T12:25:10;3.42;;;1.60;;
77164;SDS011;66140;50.280;18.660;2023-05-18T12:27:37;5.10;;;1.10;;
77164;SDS011;66140;50.280;18.660;2023-05-18T12:30:04;5.03;;;1.52;;
77164;SDS011;66140;50.280;18.660;2023-05-18T12:32:35;9.25;;;1.95;;
77164;SDS011;66140;50.280;18.660;2023-05-18T12:35:01;3.65;;;1.80;;
77164;SDS011;66140;50.280;18.660;2023-05-18T12:37:29;6.10;;;1.50;;
77164;SDS011;66140;50.280;18.660;2023-05-18T12:39:55;6.63;;;2.53;;
77164;SDS011;66140;50.280;18.660;2023-05-18T12:42:20;6.83;;;1.50;;
77164;SDS011;66140;50.280;18.660;2023-05-18T12:44:46;4.13;;;1.70;;
77164;SDS011;66140;50.280;18.660;2023-05-18T12:47:14;5.40;;;1.33;;
77164;SDS011;66140;50.280;18.660;2023-05-18T12:49:40;6.53;;;2.30;;
77164;SDS011;66140;50.280;18.660;2023-05-18T12:52:11;5.65;;;1.77;;
77164;SDS011;66140;50.280;18.660;2023-05-18T12:57:34;5.40;;;1.48;;
77164;SDS011;66140;50.280;18.660;2023-05-18T13:00:01;5.57;;;1.75;;
77164;SDS011;66140;50.280;18.660;2023-05-18T13:02:33;4.43;;;1.40;;
77164;SDS011;66140;50.280;18.660;2023-05-18T13:05:04;5.88;;;1.80;;
77164;SDS011;66140;50.280;18.660;2023-05-18T13:07:31;6.50;;;2.13;;
77164;SDS011;66140;50.280;18.660;2023-05-18T13:09:59;4.15;;;2.00;;
77164;SDS011;66140;50.280;18.660;2023-05-18T13:15:12;6.30;;;1.65;;
77164;SDS011;66140;50.280;18.660;2023-05-18T13:17:46;7.07;;;1.58;;
77164;SDS011;66140;50.280;18.660;2023-05-18T13:22:44;4.60;;;1.23;;
77164;SDS011;66140;50.280;18.660;2023-05-18T13:25:10;6.75;;;1.65;;
77164;SDS011;66140;50.280;18.660;2023-05-18T13:27:35;4.05;;;1.60;;
77164;SDS011;66140;50.280;18.660;2023-05-18T13:30:02;5.43;;;2.13;;
77164;SDS011;66140;50.280;18.660;2023-05-18T13:32:27;7.72;;;1.83;;
77164;SDS011;66140;50.280;18.660;2023-05-18T13:34:53;3.65;;;1.55;;
77164;SDS011;66140;50.280;18.660;2023-05-18T13:37:18;5.43;;;1.87;;
77164;SDS011;66140;50.280;18.660;2023-05-18T13:39:44;6.57;;;1.95;;
77164;SDS011;66140;50.280;18.660;2023-05-18T13:42:09;5.45;;;1.35;;
77164;SDS011;66140;50.280;18.660;2023-05-18T13:44:35;4.90;;;1.90;;
77164;SDS011;66140;50.280;18.660;2023-05-18T13:47:01;2.78;;;1.48;;
77164;SDS011;66140;50.280;18.660;2023-05-18T13:49:27;4.75;;;1.63;;
77164;SDS011;66140;50.280;18.660;2023-05-18T13:51:52;5.47;;;1.73;;
77164;SDS011;66140;50.280;18.660;2023-05-18T13:54:18;4.00;;;1.55;;
77164;SDS011;66140;50.280;18.660;2023-05-18T13:56:43;16.00;;;4.77;;
77164;SDS011;66140;50.280;18.660;2023-05-18T13:59:09;8.10;;;3.10;;
77164;SDS011;66140;50.280;18.660;2023-05-18T14:01:34;11.13;;;4.33;;
77164;SDS011;66140;50.280;18.660;2023-05-18T14:03:59;20.00;;;8.52;;
77164;SDS011;66140;50.280;18.660;2023-05-18T14:06:25;5.47;;;2.20;;
77164;SDS011;66140;50.280;18.660;2023-05-18T14:08:51;5.82;;;2.42;;
77164;SDS011;66140;50.280;18.660;2023-05-18T14:11:17;14.82;;;5.47;;
77164;SDS011;66140;50.280;18.660;2023-05-18T14:13:42;10.02;;;3.30;;
77164;SDS011;66140;50.280;18.660;2023-05-18T14:16:08;12.65;;;3.78;;
77164;SDS011;66140;50.280;18.660;2023-05-18T14:18:33;4.35;;;1.67;;
77164;SDS011;66140;50.280;18.660;2023-05-18T14:20:59;11.00;;;3.23;;
77164;SDS011;66140;50.280;18.660;2023-05-18T14:23:26;47.83;;;13.98;;
77164;SDS011;66140;50.280;18.660;2023-05-18T14:25:52;17.92;;;5.57;;
77164;SDS011;66140;50.280;18.660;2023-05-18T14:28:17;11.43;;;3.53;;
77164;SDS011;66140;50.280;18.660;2023-05-18T14:30:43;5.57;;;2.47;;
77164;SDS011;66140;50.280;18.660;2023-05-18T14:33:08;5.57;;;2.40;;
77164;SDS011;66140;50.280;18.660;2023-05-18T14:35:34;5.22;;;1.80;;
77164;SDS011;66140;50.280;18.660;2023-05-18T14:37:59;5.60;;;1.92;;
77164;SDS011;66140;50.280;18.660;2023-05-18T14:40:26;4.22;;;2.40;;
77164;SDS011;66140;50.280;18.660;2023-05-18T14:42:51;8.18;;;2.30;;
77164;SDS011;66140;50.280;18.660;2023-05-18T14:45:17;3.93;;;1.70;;
77164;SDS011;66140;50.280;18.660;2023-05-18T14:47:42;4.70;;;1.77;;
77164;SDS011;66140;50.280;18.660;2023-05-18T14:50:08;4.38;;;1.92;;
77164;SDS011;66140;50.280;18.660;2023-05-18T14:52:33;6.82;;;2.10;;
77164;SDS011;66140;50.280;18.660;2023-05-18T14:54:59;3.83;;;1.95;;
77164;SDS011;66140;50.280;18.660;2023-05-18T14:57:24;5.20;;;2.20;;
77164;SDS011;66140;50.280;18.660;2023-05-18T14:59:50;4.63;;;2.33;;
77164;SDS011;66140;50.280;18.660;2023-05-18T15:02:15;4.35;;;1.58;;
77164;SDS011;66140;50.280;18.660;2023-05-18T15:04:40;5.25;;;2.10;;
77164;SDS011;66140;50.280;18.660;2023-05-18T15:07:06;6.30;;;2.77;;
77164;SDS011;66140;50.280;18.660;2023-05-18T15:09:31;23.67;;;12.18;;
77164;SDS011;66140;50.280;18.660;2023-05-18T15:11:57;8.15;;;3.03;;
77164;SDS011;66140;50.280;18.660;2023-05-18T15:14:22;9.13;;;3.38;;
77164;SDS011;66140;50.280;18.660;2023-05-18T15:16:48;11.38;;;5.85;;
77164;SDS011;66140;50.280;18.660;2023-05-18T15:19:13;9.80;;;5.00;;
77164;SDS011;66140;50.280;18.660;2023-05-18T15:21:38;5.93;;;2.23;;
77164;SDS011;66140;50.280;18.660;2023-05-18T15:24:04;7.25;;;3.30;;
77164;SDS011;66140;50.280;18.660;2023-05-18T15:26:30;4.00;;;2.42;;
77164;SDS011;66140;50.280;18.660;2023-05-18T15:28:55;2.50;;;1.05;;
77164;SDS011;66140;50.280;18.660;2023-05-18T15:31:21;2.30;;;1.20;;
77164;SDS011;66140;50.280;18.660;2023-05-18T15:33:46;1.80;;;1.30;;
77164;SDS011;66140;50.280;18.660;2023-05-18T15:36:12;3.63;;;1.23;;
77164;SDS011;66140;50.280;18.660;2023-05-18T15:38:37;1.75;;;0.90;;
77164;SDS011;66140;50.280;18.660;2023-05-18T15:41:02;3.30;;;1.48;;
77164;SDS011;66140;50.280;18.660;2023-05-18T15:43:28;4.78;;;1.60;;
77164;SDS011;66140;50.280;18.660;2023-05-18T15:45:54;3.75;;;1.50;;
77164;SDS011;66140;50.280;18.660;2023-05-18T15:48:19;1.45;;;0.70;;
77164;SDS011;66140;50.280;18.660;2023-05-18T15:50:45;4.85;;;1.30;;
77164;SDS011;66140;50.280;18.660;2023-05-18T15:53:27;3.57;;;1.30;;
77164;SDS011;66140;50.280;18.660;2023-05-18T15:55:52;3.97;;;1.50;;
77164;SDS011;66140;50.280;18.660;2023-05-18T15:58:19;2.72;;;1.50;;
77164;SDS011;66140;50.280;18.660;2023-05-18T16:00:45;3.75;;;2.08;;
77164;SDS011;66140;50.280;18.660;2023-05-18T16:03:11;1.45;;;0.73;;
77164;SDS011;66140;50.280;18.660;2023-05-18T16:05:37;7.60;;;1.23;;
77164;SDS011;66140;50.280;18.660;2023-05-18T16:08:03;3.08;;;1.42;;
77164;SDS011;66140;50.280;18.660;2023-05-18T16:10:28;4.25;;;1.70;;
77164;SDS011;66140;50.280;18.660;2023-05-18T16:12:54;2.55;;;1.60;;
77164;SDS011;66140;50.280;18.660;2023-05-18T16:15:20;3.20;;;1.02;;
77164;SDS011;66140;50.280;18.660;2023-05-18T16:20:13;4.10;;;1.60;;
77164;SDS011;66140;50.280;18.660;2023-05-18T16:22:41;5.07;;;1.90;;
77164;SDS011;66140;50.280;18.660;2023-05-18T16:25:07;4.07;;;1.60;;
77164;SDS011;66140;50.280;18.660;2023-05-18T16:27:33;4.50;;;2.15;;
77164;SDS011;66140;50.280;18.660;2023-05-18T16:29:58;3.50;;;1.70;;
77164;SDS011;66140;50.280;18.660;2023-05-18T16:32:23;4.43;;;2.33;;
77164;SDS011;66140;50.280;18.660;2023-05-18T16:34:51;6.65;;;2.63;;
77164;SDS011;66140;50.280;18.660;2023-05-18T16:37:16;4.40;;;2.42;;
77164;SDS011;66140;50.280;18.660;2023-05-18T16:39:42;7.47;;;3.08;;
77164;SDS011;66140;50.280;18.660;2023-05-18T16:42:07;5.07;;;3.00;;
77164;SDS011;66140;50.280;18.660;2023-05-18T16:44:33;6.60;;;3.95;;
77164;SDS011;66140;50.280;18.660;2023-05-18T16:47:00;6.10;;;3.72;;
77164;SDS011;66140;50.280;18.660;2023-05-18T16:49:25;6.85;;;3.60;;
77164;SDS011;66140;50.280;18.660;2023-05-18T16:51:50;9.77;;;4.30;;
77164;SDS011;66140;50.280;18.660;2023-05-18T16:54:16;7.82;;;3.47;;
77164;SDS011;66140;50.280;18.660;2023-05-18T16:56:42;8.80;;;4.30;;
77164;SDS011;66140;50.280;18.660;2023-05-18T16:59:07;8.77;;;4.47;;
77164;SDS011;66140;50.280;18.660;2023-05-18T17:01:33;11.32;;;5.30;;
77164;SDS011;66140;50.280;18.660;2023-05-18T17:03:59;8.70;;;4.68;;
77164;SDS011;66140;50.280;18.660;2023-05-18T17:06:25;9.05;;;4.35;;
77164;SDS011;66140;50.280;18.660;2023-05-18T17:08:50;8.75;;;4.35;;
77164;SDS011;66140;50.280;18.660;2023-05-18T17:11:21;9.85;;;3.95;;
77164;SDS011;66140;50.280;18.660;2023-05-18T17:13:47;10.52;;;4.18;;
77164;SDS011;66140;50.280;18.660;2023-05-18T17:16:13;9.23;;;3.83;;
77164;SDS011;66140;50.280;18.660;2023-05-18T17:18:40;10.15;;;3.83;;
77164;SDS011;66140;50.280;18.660;2023-05-18T17:21:05;6.57;;;3.15;;
77164;SDS011;66140;50.280;18.660;2023-05-18T17:23:31;7.70;;;3.97;;
77164;SDS011;66140;50.280;18.660;2023-05-18T17:25:56;8.47;;;4.33;;
77164;SDS011;66140;50.280;18.660;2023-05-18T17:28:22;25.08;;;12.15;;
77164;SDS011;66140;50.280;18.660;2023-05-18T17:30:49;8.70;;;4.80;;
77164;SDS011;66140;50.280;18.660;2023-05-18T17:33:15;10.40;;;5.20;;
77164;SDS011;66140;50.280;18.660;2023-05-18T17:35:40;17.83;;;5.38;;
77164;SDS011;66140;50.280;18.660;2023-05-18T17:38:06;11.13;;;5.10;;
77164;SDS011;66140;50.280;18.660;2023-05-18T17:40:31;14.03;;;4.77;;
77164;SDS011;66140;50.280;18.660;2023-05-18T17:42:56;11.37;;;5.17;;
77164;SDS011;66140;50.280;18.660;2023-05-18T17:45:23;11.75;;;4.50;;
77164;SDS011;66140;50.280;18.660;2023-05-18T17:47:48;14.38;;;5.28;;
77164;SDS011;66140;50.280;18.660;2023-05-18T17:50:13;15.03;;;5.73;;
77164;SDS011;66140;50.280;18.660;2023-05-18T17:52:39;10.63;;;4.20;;
77164;SDS011;66140;50.280;18.660;2023-05-18T17:55:05;12.63;;;4.75;;
77164;SDS011;66140;50.280;18.660;2023-05-18T17:57:30;16.50;;;6.32;;
77164;SDS011;66140;50.280;18.660;2023-05-18T17:59:56;15.57;;;5.25;;
77164;SDS011;66140;50.280;18.660;2023-05-18T18:02:23;18.58;;;7.20;;
77164;SDS011;66140;50.280;18.660;2023-05-18T18:04:48;24.50;;;8.38;;
77164;SDS011;66140;50.280;18.660;2023-05-18T18:07:14;16.02;;;6.97;;
77164;SDS011;66140;50.280;18.660;2023-05-18T18:09:39;12.80;;;5.97;;
77164;SDS011;66140;50.280;18.660;2023-05-18T18:12:05;18.92;;;9.40;;
77164;SDS011;66140;50.280;18.660;2023-05-18T18:14:30;12.13;;;6.00;;
77164;SDS011;66140;50.280;18.660;2023-05-18T18:16:55;14.65;;;6.03;;
77164;SDS011;66140;50.280;18.660;2023-05-18T18:19:21;10.57;;;5.73;;
77164;SDS011;66140;50.280;18.660;2023-05-18T18:21:46;9.38;;;5.75;;
77164;SDS011;66140;50.280;18.660;2023-05-18T18:24:12;15.30;;;6.55;;
77164;SDS011;66140;50.280;18.660;2023-05-18T18:26:38;14.35;;;5.35;;
77164;SDS011;66140;50.280;18.660;2023-05-18T18:29:04;11.40;;;5.50;;
77164;SDS011;66140;50.280;18.660;2023-05-18T18:31:33;9.88;;;5.55;;
77164;SDS011;66140;50.280;18.660;2023-05-18T18:33:58;9.65;;;6.13;;
77164;SDS011;66140;50.280;18.660;2023-05-18T18:36:24;9.33;;;4.90;;
77164;SDS011;66140;50.280;18.660;2023-05-18T18:38:50;12.68;;;4.82;;
77164;SDS011;66140;50.280;18.660;2023-05-18T18:41:15;12.52;;;6.40;;
77164;SDS011;66140;50.280;18.660;2023-05-18T18:46:09;10.30;;;5.68;;
77164;SDS011;66140;50.280;18.660;2023-05-18T18:48:35;10.20;;;5.55;;
77164;SDS011;66140;50.280;18.660;2023-05-18T18:51:00;10.83;;;5.03;;
77164;SDS011;66140;50.280;18.660;2023-05-18T18:53:25;12.35;;;5.18;;
77164;SDS011;66140;50.280;18.660;2023-05-18T18:55:51;9.50;;;5.15;;
77164;SDS011;66140;50.280;18.660;2023-05-18T18:58:17;8.68;;;4.38;;